Pagrindinis puslapis
METAR-TAF:

METAR-TAF

Oro uostai :

RAF

Boulmer, Anglija

platuma: 55-25-19N, ilguma: 1-36-12W, Aukštis: 24 m

Dabartinis oras

Ataskaita buvo paskelbta 16 minutes, ne 00:50 UTC
Vėjas 11 kt iš Pietų/Pietryčių
Temperatūra 7°C
Drėgmė 93%
Slėgis 1027 hPa
Matomumas 10 km arba daugiau

METAR: EGQM 100050Z AUTO 15011KT 9999 OVC004/// 07/06 Q1027

Laikas: 02:06 (01:06 UTC)


TAF: trūkstamas

Orai ataskaitas ir orų prognozės (METAR, TAF).

turimą stotys yra geltonos ir raudonos taškus žemėlapyje.

Perkelti pele per norėdami pamatyti stoties vardą.

Tada spustelėkite, norėdami matyti oro stebėjimo ir prognozės.

Norėdami pakeisti žemėlapį: spustelėkite ant žalios mygtukų su juodo kryžiaus žemyn,; žalią mygtuką su brūkšneliu, jei norite nutolinti; arba žalių rodyklių gretimoms žemėlapius.


METAR-TAF: